Terminal Aerodrome Forecast
Issued by NWS Tampa Bay Area, FL

Home | Current Version | Previous Version | Text Only | Print | Product List | Glossary On
Versions: 1 2 3 4 5 6 7 8 9 10 11 12 13 14 15 16 17 18 19 20 21 22 23
000
FTUS42 KTBW 031139
TAFSRQ
TAF
KSRQ 031139Z 0312/0412 08008KT P6SM SCT015 SCT100 OVC250
     FM031500 10006KT P6SM VCSH SCT020 OVC060
     FM031800 25007KT P6SM VCTS BKN030CB OVC060
     FM032100 30007KT 6SM SHRA VCTS BKN030CB OVC050
     FM040000 09005KT 6SM SHRA VCTS BKN025CB OVC040
     FM040900 12007KT 5SM SHRA VCTS BKN020CB OVC040=

USA.gov is the U.S. government's official web portal to all federal, state and local government web resources and services.